Time;durP1;ratioP1;P1;durP2;ratioP2;P2;SDS_P1;SDS_P2;PMS_P1;PMS_P2;Temp;Humidity;BMP_temperature;BMP_pressure;BME280_temperature;BME280_humidity;BME280_pressure;Samples;Min_cycle;Max_cycle;Signal;HPM_P1;HPM_P2
2022/04/27 00:00:46;;;;;;;3.30;2.85;;;;;;;10.88;100.00;100749.25;1768131;81;21162;-78
2022/04/27 00:03:15;;;;;;;3.72;3.22;;;;;;;10.87;100.00;100759.31;1768147;81;21022;-79
2022/04/27 00:05:43;;;;;;;4.60;3.15;;;;;;;10.87;100.00;100757.55;1768245;81;21552;-78
2022/04/27 00:08:11;;;;;;;3.72;3.22;;;;;;;10.86;100.00;100758.95;1768225;81;21046;-79
2022/04/27 00:10:39;;;;;;;5.60;2.70;;;;;;;10.87;100.00;100761.91;1768402;81;21458;-77
2022/04/27 00:13:16;;;;;;;3.27;2.87;;;;;;;10.88;100.00;100764.88;1768246;81;21010;-78
2022/04/27 00:15:45;;;;;;;5.72;3.52;;;;;;;10.92;100.00;100769.39;1766404;80;21101;-83
2022/04/27 00:18:12;;;;;;;2.90;2.67;;;;;;;10.96;100.00;100771.66;1768061;81;21018;-81
2022/04/27 00:20:39;;;;;;;3.15;2.87;;;;;;;10.98;100.00;100769.78;1768244;80;21023;-79
2022/04/27 00:23:08;;;;;;;3.30;3.00;;;;;;;11.01;100.00;100768.72;1768138;81;20972;-79
2022/04/27 00:25:38;;;;;;;4.05;3.00;;;;;;;11.01;100.00;100760.44;1768203;81;21043;-78
2022/04/27 00:28:06;;;;;;;5.72;3.42;;;;;;;11.06;100.00;100774.41;1767872;80;20994;-79
2022/04/27 00:30:36;;;;;;;3.65;3.25;;;;;;;11.08;100.00;100767.30;1768183;80;21030;-78
2022/04/27 00:33:05;;;;;;;5.83;3.67;;;;;;;11.11;100.00;100771.45;1768200;81;20964;-79
2022/04/27 00:35:32;;;;;;;3.98;3.58;;;;;;;11.13;100.00;100768.27;1767881;81;21295;-78
2022/04/27 00:38:01;;;;;;;4.92;3.67;;;;;;;11.14;100.00;100767.33;1768312;80;21824;-78
2022/04/27 00:40:29;;;;;;;4.78;3.70;;;;;;;11.15;100.00;100775.02;1768878;80;21070;-79
2022/04/27 00:42:58;;;;;;;9.43;3.52;;;;;;;11.16;100.00;100774.56;1779115;80;21106;-77
2022/04/27 00:45:26;;;;;;;5.80;3.55;;;;;;;11.15;100.00;100778.93;1746723;80;21164;-79
2022/04/27 00:47:54;;;;;;;5.58;3.67;;;;;;;11.15;100.00;100779.42;1779146;80;21006;-77
2022/04/27 00:50:21;;;;;;;5.75;3.72;;;;;;;11.15;100.00;100778.11;1779374;80;21159;-78
2022/04/27 00:52:51;;;;;;;5.65;3.92;;;;;;;11.14;100.00;100776.45;1779162;80;20998;-80
2022/04/27 00:55:23;;;;;;;5.05;3.90;;;;;;;11.14;100.00;100784.27;1779514;80;21488;-77
2022/04/27 00:57:52;;;;;;;5.65;4.05;;;;;;;11.13;100.00;100781.30;1779237;80;21497;-77
2022/04/27 01:00:21;;;;;;;4.83;3.72;;;;;;;11.12;100.00;100785.70;1779262;80;21579;-78
2022/04/27 01:02:50;;;;;;;3.95;3.50;;;;;;;11.11;100.00;100787.09;1778835;80;21520;-78
2022/04/27 01:05:21;;;;;;;10.80;3.80;;;;;;;11.09;100.00;100786.40;1778745;80;21572;-78
2022/04/27 01:07:49;;;;;;;3.47;3.17;;;;;;;11.08;100.00;100787.34;1778958;80;21003;-78
2022/04/27 01:10:18;;;;;;;4.97;3.87;;;;;;;11.05;100.00;100785.31;1778951;80;21022;-77
2022/04/27 01:12:47;;;;;;;4.30;3.80;;;;;;;11.01;100.00;100790.41;1779202;80;22199;-77
2022/04/27 01:15:33;;;;;;;5.92;4.08;;;;;;;10.98;100.00;100785.41;1779124;80;21260;-79
2022/04/27 01:18:01;;;;;;;4.70;3.85;;;;;;;10.93;100.00;100788.84;1779319;80;20987;-77
2022/04/27 01:20:44;;;;;;;5.15;4.17;;;;;;;10.87;100.00;100799.23;1774010;80;21125;-83
2022/04/27 01:23:08;;;;;;;5.80;4.20;;;;;;;10.79;100.00;100804.17;1774841;80;21566;-77
2022/04/27 01:25:54;;;;;;;4.47;3.85;;;;;;;10.71;100.00;100801.30;1779117;80;21050;-78
2022/04/27 01:28:24;;;;;;;4.50;3.80;;;;;;;10.63;100.00;100804.93;1779373;80;21138;-78
2022/04/27 01:31:04;;;;;;;4.03;3.62;;;;;;;10.55;100.00;100802.86;1779626;80;20995;-77
2022/04/27 01:33:35;;;;;;;5.62;4.28;;;;;;;10.49;100.00;100808.07;1778694;80;21046;-78
2022/04/27 01:36:06;;;;;;;4.62;4.00;;;;;;;10.44;100.00;100810.63;1779321;80;21062;-77
2022/04/27 01:38:43;;;;;;;4.87;4.10;;;;;;;10.37;100.00;100809.77;1779434;80;21002;-78
2022/04/27 01:41:11;;;;;;;5.10;4.60;;;;;;;10.33;100.00;100808.77;1779178;80;21874;-79
2022/04/27 01:43:39;;;;;;;5.53;4.55;;;;;;;10.26;100.00;100806.58;1779154;80;21148;-78
2022/04/27 01:46:07;;;;;;;5.20;4.58;;;;;;;10.21;100.00;100811.77;1779141;80;21014;-80
2022/04/27 01:48:34;;;;;;;6.03;4.65;;;;;;;10.17;100.00;100816.81;1779246;80;21014;-78
2022/04/27 01:51:01;;;;;;;5.10;4.67;;;;;;;10.13;100.00;100824.00;1779252;80;21054;-77
2022/04/27 01:56:17;;;;;;;6.42;5.17;;;;;;;10.07;100.00;100828.34;1752153;80;21529;-77
2022/04/27 01:58:46;;;;;;;4.92;4.50;;;;;;;10.03;100.00;100828.17;1774227;80;21093;-78
2022/04/27 02:01:14;;;;;;;6.53;4.85;;;;;;;9.97;100.00;100825.55;1779026;80;21002;-79
2022/04/27 02:03:41;;;;;;;6.65;5.28;;;;;;;9.90;100.00;100825.14;1779176;80;21006;-79
2022/04/27 02:06:19;;;;;;;5.55;5.05;;;;;;;9.87;100.00;100826.64;1774214;80;21178;-77
2022/04/27 02:08:46;;;;;;;6.70;5.50;;;;;;;9.84;100.00;100818.22;1779356;80;21473;-77
2022/04/27 02:11:15;;;;;;;6.37;5.60;;;;;;;9.81;100.00;100823.16;1779232;80;21021;-84
2022/04/27 02:13:53;;;;;;;6.53;5.60;;;;;;;9.78;100.00;100829.86;1774845;80;21022;-77
2022/04/27 02:16:14;;;;;;;6.17;5.20;;;;;;;9.74;100.00;100840.13;1776631;80;21068;-78
2022/04/27 02:18:43;;;;;;;8.95;6.15;;;;;;;9.72;100.00;100833.73;1778851;80;21552;-77
2022/04/27 02:21:11;;;;;;;6.47;5.78;;;;;;;9.72;100.00;100829.84;1779234;80;21571;-78
2022/04/27 02:23:39;;;;;;;7.37;6.20;;;;;;;9.70;100.00;100828.25;1779310;80;20995;-77
2022/04/27 02:26:06;;;;;;;6.95;5.90;;;;;;;9.66;100.00;100831.53;1779236;80;21084;-78
2022/04/27 02:28:35;;;;;;;8.75;6.42;;;;;;;9.63;100.00;100840.37;1779282;80;21441;-78
2022/04/27 02:31:04;;;;;;;9.65;6.20;;;;;;;9.60;100.00;100845.80;1778699;80;21799;-78
2022/04/27 02:33:32;;;;;;;6.83;6.12;;;;;;;9.58;100.00;100847.67;1779068;80;21002;-79
2022/04/27 02:36:01;;;;;;;7.25;6.50;;;;;;;9.58;100.00;100845.52;1779108;80;21500;-78
2022/04/27 02:38:28;;;;;;;7.12;6.50;;;;;;;9.58;100.00;100846.81;1745264;80;21035;-78
2022/04/27 02:40:57;;;;;;;8.20;6.30;;;;;;;9.54;100.00;100848.80;1779263;80;21562;-77
2022/04/27 02:43:27;;;;;;;7.55;6.72;;;;;;;9.55;100.00;100860.86;1768339;80;21611;-77
2022/04/27 02:51:57;;;;;;;9.93;7.20;;;;;;;9.46;100.00;100876.61;1767832;80;21065;-79
2022/04/27 02:54:31;;;;;;;8.03;7.22;;;;;;;9.46;100.00;100877.91;1767141;80;21156;-76
2022/04/27 02:57:18;;;;;;;9.83;7.60;;;;;;;9.45;100.00;100880.14;1744502;81;21230;-78
2022/04/27 02:59:48;;;;;;;8.28;7.47;;;;;;;9.43;100.00;100876.80;1744942;81;21069;-78
2022/04/27 03:02:24;;;;;;;7.58;6.87;;;;;;;9.44;100.00;100881.55;1737927;82;21110;-77
2022/04/27 03:05:00;;;;;;;8.93;7.37;;;;;;;9.44;100.00;100884.16;1727866;82;21114;-77
2022/04/27 03:07:29;;;;;;;10.70;8.10;;;;;;;9.45;100.00;100890.55;1719040;82;21082;-77
2022/04/27 03:10:17;;;;;;;8.87;7.80;;;;;;;9.46;100.00;100890.06;1728284;82;21019;-79
2022/04/27 03:13:01;;;;;;;8.60;7.70;;;;;;;9.46;100.00;100888.77;1728170;82;21061;-78
2022/04/27 03:15:36;;;;;;;7.92;7.22;;;;;;;9.47;100.00;100896.48;1726229;82;21544;-79
2022/04/27 03:18:19;;;;;;;9.85;7.40;;;;;;;9.49;100.00;100901.56;1683648;83;21102;-83
2022/04/27 03:20:52;;;;;;;8.68;7.15;;;;;;;9.50;100.00;100904.54;1725045;82;21482;-78
2022/04/27 03:23:25;;;;;;;8.43;7.58;;;;;;;9.52;100.00;100903.98;1727980;82;21074;-78
2022/04/27 03:25:58;;;;;;;8.50;7.67;;;;;;;9.56;100.00;100904.61;1727806;82;21098;-79
2022/04/27 03:28:41;;;;;;;9.73;7.92;;;;;;;9.59;100.00;100908.28;1718237;83;21113;-78
2022/04/27 03:31:29;;;;;;;9.70;8.10;;;;;;;9.61;100.00;100898.14;1694496;83;21535;-76
2022/04/27 03:33:55;;;;;;;8.68;7.78;;;;;;;9.66;100.00;100899.14;1716816;83;20954;-77
2022/04/27 03:36:23;;;;;;;9.78;8.08;;;;;;;9.69;100.00;100896.34;1717076;83;21522;-76
2022/04/27 03:39:00;;;;;;;8.13;7.30;;;;;;;9.74;100.00;100900.76;1716982;83;21066;-76
2022/04/27 03:41:28;;;;;;;8.90;7.72;;;;;;;9.80;100.00;100906.02;1694591;83;21053;-76
2022/04/27 03:43:57;;;;;;;8.63;7.72;;;;;;;9.86;100.00;100913.88;1716577;83;21082;-76
2022/04/27 03:46:26;;;;;;;8.13;7.33;;;;;;;9.93;100.00;100917.73;1717056;83;21571;-77
2022/04/27 03:48:54;;;;;;;9.63;7.30;;;;;;;10.00;100.00;100926.78;1717111;83;22150;-81
2022/04/27 03:51:29;;;;;;;8.90;7.20;;;;;;;10.09;100.00;100927.95;1717152;83;21178;-80
2022/04/27 03:53:59;;;;;;;8.18;7.30;;;;;;;10.19;100.00;100929.45;1722939;82;21070;-76
2022/04/27 03:56:28;;;;;;;9.78;8.40;;;;;;;10.29;100.00;100935.69;1741066;82;21113;-76
2022/04/27 03:58:57;;;;;;;8.58;7.67;;;;;;;10.39;100.00;100937.22;1742335;82;21077;-76
2022/04/27 04:01:26;;;;;;;9.95;8.43;;;;;;;10.47;100.00;100938.81;1718638;82;21117;-76
2022/04/27 04:03:56;;;;;;;9.10;8.20;;;;;;;10.51;100.00;100941.55;1723828;82;21575;-76
2022/04/27 04:06:23;;;;;;;8.95;8.00;;;;;;;10.56;100.00;100943.39;1795889;79;21089;-79
2022/04/27 04:08:52;;;;;;;8.63;7.83;;;;;;;10.62;100.00;100953.00;1767834;81;21651;-78
2022/04/27 04:11:21;;;;;;;8.95;8.10;;;;;;;10.66;100.00;100957.04;1768217;81;21087;-77
2022/04/27 04:13:53;;;;;;;9.95;8.95;;;;;;;10.67;100.00;100963.47;1764494;81;21893;-76
2022/04/27 04:16:22;;;;;;;10.38;8.43;;;;;;;10.71;100.00;100964.08;1768558;80;21018;-77
2022/04/27 04:18:51;;;;;;;10.50;9.50;;;;;;;10.74;100.00;100966.45;1730894;81;21042;-76
2022/04/27 04:21:20;;;;;;;10.90;9.33;;;;;;;10.77;100.00;100971.45;1764649;81;21039;-78
2022/04/27 04:24:05;;;;;;;10.90;9.80;;;;;;;10.78;100.00;100975.73;1766992;80;21030;-77
2022/04/27 04:29:21;;;;;;;12.33;10.63;;;;;;;10.77;100.00;100975.36;1736173;82;20182;-76
2022/04/27 04:31:50;;;;;;;11.50;10.30;;;;;;;10.78;100.00;100980.09;1769860;80;21000;-78
2022/04/27 04:34:26;;;;;;;11.97;10.65;;;;;;;10.75;100.00;100986.84;1727450;82;21396;-78
2022/04/27 04:36:53;;;;;;;12.60;11.38;;;;;;;10.73;100.00;100983.86;1804152;79;20987;-77
2022/04/27 04:39:22;;;;;;;14.20;12.07;;;;;;;10.75;100.00;100991.56;1803875;79;22252;-76
2022/04/27 04:41:51;;;;;;;11.95;10.68;;;;;;;10.73;100.00;100998.19;1803288;79;21489;-77
2022/04/27 04:44:19;;;;;;;11.70;10.48;;;;;;;10.72;100.00;100997.83;1796526;79;21026;-77
2022/04/27 04:47:05;;;;;;;12.23;11.03;;;;;;;10.76;100.00;100999.74;1796785;79;21018;-76
2022/04/27 04:49:46;;;;;;;11.45;10.30;;;;;;;10.78;100.00;101002.23;1736008;79;22054;-76
2022/04/27 04:52:32;;;;;;;11.08;9.90;;;;;;;10.76;100.00;101008.86;1759726;79;21906;-76
2022/04/27 04:55:18;;;;;;;12.13;10.93;;;;;;;10.79;100.00;101019.08;1748357;80;21011;-75
2022/04/27 04:58:04;;;;;;;12.60;11.28;;;;;;;10.84;100.00;101028.70;1796928;79;21631;-76
2022/04/27 05:00:45;;;;;;;10.82;9.78;;;;;;;10.86;100.00;101025.52;1795920;79;21015;-75
2022/04/27 05:03:20;;;;;;;11.65;10.38;;;;;;;10.84;100.00;101023.48;1779046;78;21057;-79
2022/04/27 05:06:09;;;;;;;11.20;10.05;;;;;;;10.83;100.00;101026.20;1764874;79;22378;-78
2022/04/27 05:08:42;;;;;;;11.43;10.23;;;;;;;10.86;100.00;101032.48;1770451;79;21069;-84
2022/04/27 05:11:26;;;;;;;12.03;10.82;;;;;;;10.87;100.00;101035.01;1751718;81;21021;-76
2022/04/27 05:14:11;;;;;;;11.00;9.55;;;;;;;10.88;100.00;101035.83;1789195;79;21050;-77
2022/04/27 05:16:59;;;;;;;10.08;8.98;;;;;;;10.93;100.00;101038.11;1748527;80;21066;-77
2022/04/27 05:19:28;;;;;;;10.65;9.60;;;;;;;11.00;100.00;101041.50;1745040;80;21218;-78
2022/04/27 05:21:57;;;;;;;11.88;10.00;;;;;;;11.11;100.00;101045.10;1731330;82;21062;-78
2022/04/27 05:24:27;;;;;;;11.20;10.03;;;;;;;11.19;100.00;101044.94;1758199;81;21090;-85
2022/04/27 05:27:05;;;;;;;10.00;9.08;;;;;;;11.23;100.00;101051.22;1761013;81;21003;-78
2022/04/27 05:32:44;;;;;;;9.98;8.95;;;;;;;11.12;100.00;101055.89;1718506;82;21845;-78
2022/04/27 05:35:35;;;;;;;10.18;9.23;;;;;;;11.05;100.00;101062.03;1721213;81;21573;-78
2022/04/27 05:38:22;;;;;;;10.90;9.80;;;;;;;11.07;100.00;101069.73;1705301;82;21199;-77
2022/04/27 05:41:09;;;;;;;10.53;9.53;;;;;;;11.10;100.00;101073.41;1720102;83;21138;-77
2022/04/27 05:43:52;;;;;;;10.65;9.55;;;;;;;11.12;100.00;101078.05;1715724;82;20991;-77
2022/04/27 05:46:23;;;;;;;;;;;;;;;11.12;100.00;101076.74;1795004;79;21623;-79
2022/04/27 05:49:03;;;;;;;10.23;9.23;;;;;;;11.09;100.00;101079.10;1708613;81;20141;-78
2022/04/27 05:51:32;;;;;;;11.63;9.90;;;;;;;11.05;100.00;101074.58;1751904;79;21104;-78
2022/04/27 05:54:16;;;;;;;11.20;9.23;;;;;;;11.01;100.00;101073.59;1774618;79;21591;-79
2022/04/27 05:56:46;;;;;;;9.68;8.78;;;;;;;11.00;100.00;101074.52;1722345;81;21040;-80
2022/04/27 05:59:21;;;;;;;9.95;9.03;;;;;;;11.02;100.00;101075.26;1791835;78;21572;-78
2022/04/27 06:02:10;;;;;;;10.72;9.63;;;;;;;11.08;100.00;101081.82;1781876;78;21022;-78
2022/04/27 06:04:37;;;;;;;10.75;9.68;;;;;;;11.14;100.00;101086.11;1740432;80;20999;-77
2022/04/27 06:07:07;;;;;;;10.38;9.38;;;;;;;11.20;100.00;101087.47;1717509;82;21519;-77
2022/04/27 06:09:36;;;;;;;9.55;8.65;;;;;;;11.26;100.00;101088.81;1764467;80;20994;-84
2022/04/27 06:12:07;;;;;;;10.40;9.08;;;;;;;11.30;100.00;101089.80;1731304;81;22013;-78
2022/04/27 06:14:46;;;;;;;8.80;8.00;;;;;;;11.39;100.00;101094.00;1764854;81;21014;-81
2022/04/27 06:17:20;;;;;;;10.15;8.83;;;;;;;11.47;100.00;101091.68;1758539;81;21042;-77
2022/04/27 06:19:51;;;;;;;10.70;9.18;;;;;;;11.57;100.00;101098.36;1809778;78;21456;-78
2022/04/27 06:22:21;;;;;;;9.40;8.50;;;;;;;11.65;100.00;101098.64;1747992;80;21763;-77
2022/04/27 06:24:52;;;;;;;9.80;8.90;;;;;;;11.71;100.00;101096.08;1745394;81;21102;-77
2022/04/27 06:27:30;;;;;;;10.08;9.08;;;;;;;11.79;100.00;101100.27;1713729;82;22565;-77
2022/04/27 06:29:58;;;;;;;9.48;8.55;;;;;;;11.88;100.00;101099.60;1778498;79;21069;-78
2022/04/27 06:32:25;;;;;;;8.83;7.92;;;;;;;11.97;100.00;101096.35;1734444;81;21058;-77
2022/04/27 06:34:54;;;;;;;8.40;7.58;;;;;;;12.05;100.00;101100.99;1759945;81;21065;-78
2022/04/27 06:37:23;;;;;;;7.30;6.67;;;;;;;12.13;100.00;101105.66;1764830;80;21131;-77
2022/04/27 06:39:54;;;;;;;7.75;6.95;;;;;;;12.16;100.00;101098.89;1764917;81;21018;-78
2022/04/27 06:42:22;;;;;;;7.97;7.28;;;;;;;12.18;100.00;101090.48;1764823;80;20995;-76
2022/04/27 06:45:10;;;;;;;7.92;7.22;;;;;;;12.29;100.00;101099.66;1764700;79;21016;-79
2022/04/27 06:47:58;;;;;;;7.60;6.90;;;;;;;12.55;100.00;101106.47;1768914;79;21113;-77
2022/04/27 06:50:43;;;;;;;7.05;6.35;;;;;;;12.78;100.00;101102.94;1747769;81;22008;-79
2022/04/27 06:53:29;;;;;;;6.37;5.83;;;;;;;12.91;100.00;101093.67;1796281;79;21551;-78
2022/04/27 06:56:16;;;;;;;5.90;5.40;;;;;;;13.02;100.00;101101.17;1748345;80;21015;-77
2022/04/27 06:58:50;;;;;;;6.08;5.25;;;;;;;13.12;100.00;101107.81;1744629;80;21165;-77
2022/04/27 07:01:19;;;;;;;5.87;5.22;;;;;;;13.28;100.00;101091.27;1744881;82;21062;-77
2022/04/27 07:03:53;;;;;;;7.15;5.55;;;;;;;13.65;100.00;101092.27;1795975;79;21178;-78
2022/04/27 07:06:17;;;;;;;4.85;4.40;;;;;;;13.89;100.00;101087.31;1744362;82;21023;-81
2022/04/27 07:08:44;;;;;;;4.55;4.15;;;;;;;14.07;100.00;101078.41;1791704;78;21077;-83
2022/04/27 07:11:16;;;;;;;3.77;3.47;;;;;;;14.20;100.00;101076.45;1797037;78;21030;-78
2022/04/27 07:13:44;;;;;;;4.47;4.08;;;;;;;14.34;100.00;101079.21;1784546;79;21035;-79
2022/04/27 07:16:11;;;;;;;4.60;4.20;;;;;;;14.46;100.00;101081.28;1779696;78;21544;-82
2022/04/27 07:18:40;;;;;;;4.85;4.35;;;;;;;14.53;100.00;101076.85;1787509;79;21069;-79
2022/04/27 07:21:10;;;;;;;7.10;3.87;;;;;;;14.55;100.00;101081.45;1765777;79;21068;-79
2022/04/27 07:23:39;;;;;;;4.17;3.75;;;;;;;14.50;100.00;101090.55;1766328;79;21066;-77
2022/04/27 07:26:08;;;;;;;3.95;3.55;;;;;;;14.38;100.00;101082.41;1728049;81;21113;-78
2022/04/27 07:28:41;;;;;;;5.10;4.22;;;;;;;14.47;100.00;101094.73;1723656;82;21122;-78
2022/04/27 07:31:09;;;;;;;4.40;4.00;;;;;;;14.74;100.00;101092.58;1714403;82;21505;-78
2022/04/27 07:33:37;;;;;;;4.33;3.92;;;;;;;14.86;100.00;101089.39;1719172;83;21726;-79
2022/04/27 07:36:06;;;;;;;4.85;4.12;;;;;;;14.88;100.00;101090.06;1711335;83;21045;-80
2022/04/27 07:38:33;;;;;;;3.60;3.30;;;;;;;14.90;100.00;101080.28;1719026;82;21077;-79
2022/04/27 07:41:08;;;;;;;3.77;3.45;;;;;;;15.01;100.00;101082.81;1733377;82;21313;-79
2022/04/27 07:43:36;;;;;;;4.20;3.50;;;;;;;15.19;100.00;101083.47;1747056;81;22089;-79
2022/04/27 07:46:08;;;;;;;4.92;3.30;;;;;;;15.33;100.00;101088.82;1742319;81;21046;-78
2022/04/27 07:48:36;;;;;;;3.50;3.20;;;;;;;15.30;100.00;101079.43;1722691;82;21050;-79
2022/04/27 07:51:09;;;;;;;4.70;3.72;;;;;;;15.22;100.00;101083.20;1743982;81;21066;-79
2022/04/27 07:53:36;;;;;;;3.83;3.42;;;;;;;15.19;100.00;101083.47;1744292;82;21046;-79
2022/04/27 07:56:05;;;;;;;3.58;3.27;;;;;;;15.26;100.00;101083.30;1748848;81;21570;-78
2022/04/27 07:58:34;;;;;;;4.03;3.65;;;;;;;15.27;100.00;101083.16;1745756;82;21018;-78
2022/04/27 08:01:02;;;;;;;3.87;3.37;;;;;;;15.26;100.00;101075.43;1746696;82;21067;-79
2022/04/27 08:03:31;;;;;;;4.28;3.40;;;;;;;15.26;100.00;101073.63;1747997;81;21096;-79
2022/04/27 08:06:03;;;;;;;4.70;3.60;;;;;;;15.39;100.00;101073.38;1744759;82;20996;-80
2022/04/27 08:08:31;;;;;;;4.25;3.85;;;;;;;15.45;100.00;101078.08;1739570;82;21026;-77
2022/04/27 08:11:00;;;;;;;4.37;3.98;;;;;;;15.35;100.00;101071.97;1744484;82;21445;-78
2022/04/27 08:13:29;;;;;;;5.72;3.92;;;;;;;15.22;100.00;101075.34;1744308;82;21093;-78
2022/04/27 08:15:57;;;;;;;5.95;4.08;;;;;;;15.22;100.00;101070.09;1744225;82;21660;-83
2022/04/27 08:18:26;;;;;;;4.03;3.67;;;;;;;15.41;100.00;101070.14;1747452;80;20978;-78
2022/04/27 08:23:43;;;;;;;4.35;3.75;;;;;;;15.75;100.00;101072.36;1726498;81;21054;-78
2022/04/27 08:26:11;;;;;;;4.40;4.00;;;;;;;15.76;100.00;101074.52;1713687;82;21153;-78
2022/04/27 08:28:40;;;;;;;5.53;4.10;;;;;;;15.87;100.00;101077.52;1731297;80;22348;-77
2022/04/27 08:31:11;;;;;;;4.40;4.10;;;;;;;16.06;100.00;101081.42;1735210;82;21141;-78
2022/04/27 08:33:39;;;;;;;5.00;3.60;;;;;;;16.13;100.00;101072.50;1706756;82;21144;-80
2022/04/27 08:36:07;;;;;;;4.10;3.50;;;;;;;15.99;100.00;101079.01;1703172;82;42198;-79
2022/04/27 08:38:37;;;;;;;4.37;3.60;;;;;;;15.77;100.00;101078.30;1767910;80;21540;-78
2022/04/27 08:41:06;;;;;;;4.00;3.70;;;;;;;15.60;100.00;101085.08;1727939;82;21058;-78
2022/04/27 08:43:38;;;;;;;3.75;3.45;;;;;;;15.67;100.00;101080.58;1737994;80;21066;-83
2022/04/27 08:46:08;;;;;;;4.33;3.67;;;;;;;15.82;100.00;101081.02;1763828;81;21093;-79
2022/04/27 08:48:36;;;;;;;5.03;3.80;;;;;;;15.94;100.00;101085.17;1754239;81;21050;-78
2022/04/27 08:51:05;;;;;;;3.47;3.17;;;;;;;15.95;100.00;101085.98;1742229;81;21605;-78
2022/04/27 08:53:34;;;;;;;3.55;3.25;;;;;;;15.88;100.00;101091.80;1786393;79;21041;-81
2022/04/27 08:56:05;;;;;;;4.15;3.20;;;;;;;15.77;100.00;101092.74;1809481;79;21554;-78
2022/04/27 08:58:33;;;;;;;4.10;3.70;;;;;;;15.65;100.00;101086.45;1788122;79;20950;-78
2022/04/27 09:01:01;;;;;;;3.98;3.67;;;;;;;15.59;100.00;101087.35;1808642;79;21088;-78
2022/04/27 09:03:38;;;;;;;4.10;3.70;;;;;;;15.62;100.00;101095.44;1807677;78;21026;-78
2022/04/27 09:06:12;;;;;;;3.22;3.02;;;;;;;15.81;100.00;101083.30;1813605;78;20998;-78
2022/04/27 09:08:55;;;;;;;4.30;3.90;;;;;;;16.00;100.00;101092.98;1766505;80;21246;-79
2022/04/27 09:11:27;;;;;;;4.30;3.90;;;;;;;16.07;100.00;101093.59;1762410;80;21069;-78
2022/04/27 09:14:02;;;;;;;4.40;4.00;;;;;;;16.05;100.00;101096.02;1771519;80;21520;-82
2022/04/27 09:22:45;;;;;;;3.90;3.50;;;;;;;15.98;100.00;101095.77;1782495;80;21266;-78
2022/04/27 09:25:14;;;;;;;4.60;4.20;;;;;;;16.00;100.00;101103.00;1763867;80;21108;-84
2022/04/27 09:27:42;;;;;;;4.30;4.00;;;;;;;15.90;100.00;101108.76;1778888;80;21563;-84
2022/04/27 09:30:14;;;;;;;4.87;4.37;;;;;;;15.73;100.00;101098.41;1763977;80;21021;-79
2022/04/27 09:32:52;;;;;;;4.78;4.37;;;;;;;15.57;100.00;101100.27;1772698;80;21594;-78
2022/04/27 09:35:34;;;;;;;3.83;3.45;;;;;;;15.51;100.00;101096.86;1741032;82;21262;-78
2022/04/27 09:38:16;;;;;;;3.52;3.22;;;;;;;15.56;100.00;101087.61;1735462;80;21089;-78
2022/04/27 09:40:55;;;;;;;5.05;4.00;;;;;;;15.72;100.00;101092.34;1740963;80;21084;-79
2022/04/27 09:43:52;;;;;;;5.22;4.03;;;;;;;15.88;100.00;101102.80;1807668;79;21527;-78
2022/04/27 09:46:25;;;;;;;4.85;3.45;;;;;;;15.97;100.00;101099.36;1755607;79;20992;-84
2022/04/27 09:49:12;;;;;;;3.37;3.08;;;;;;;15.99;100.00;101108.40;1782233;79;21885;-78
2022/04/27 09:51:51;;;;;;;3.85;3.37;;;;;;;16.02;100.00;101105.01;1811443;77;21095;-79
2022/04/27 09:54:25;;;;;;;4.40;3.40;;;;;;;16.15;100.00;101103.88;1799063;78;21558;-78
2022/04/27 09:57:04;;;;;;;3.72;3.42;;;;;;;16.22;100.00;101100.56;1795663;78;20946;-78
2022/04/27 09:59:36;;;;;;;3.30;3.00;;;;;;;16.23;100.00;101100.06;1814301;79;21690;-86
2022/04/27 10:02:08;;;;;;;5.62;5.12;;;;;;;16.19;100.00;101099.52;1808262;79;21021;-80
2022/04/27 10:04:39;;;;;;;3.67;3.37;;;;;;;16.23;100.00;101098.75;1809274;79;21030;-80
2022/04/27 10:07:10;;;;;;;3.42;3.12;;;;;;;16.37;100.00;101094.39;1765702;80;21013;-81
2022/04/27 10:09:38;;;;;;;3.20;2.90;;;;;;;16.54;100.00;101090.19;1768501;79;21002;-78
2022/04/27 10:12:11;;;;;;;3.60;3.30;;;;;;;16.76;100.00;101086.85;1768354;80;21030;-79
2022/04/27 10:14:38;;;;;;;3.87;3.07;;;;;;;17.01;100.00;101080.63;1773171;79;21272;-79
2022/04/27 10:17:05;;;;;;;4.92;2.87;;;;;;;17.30;100.00;101076.52;1766849;80;21034;-79
2022/04/27 10:19:33;;;;;;;3.98;2.90;;;;;;;17.55;100.00;101096.51;1734592;81;21073;-79
2022/04/27 10:22:05;;;;;;;4.80;3.60;;;;;;;17.46;100.00;101081.60;1722240;82;21374;-78
2022/04/27 10:24:49;;;;;;;5.28;4.78;;;;;;;17.16;100.00;101083.59;1749680;81;21906;-80
2022/04/27 10:27:44;;;;;;;5.70;5.10;;;;;;;16.82;100.00;101102.08;1768320;80;21392;-79
2022/04/27 10:30:12;;;;;;;6.28;5.50;;;;;;;16.48;100.00;101097.80;1773404;80;20986;-78
2022/04/27 10:32:51;;;;;;;3.37;3.08;;;;;;;16.29;100.00;101092.95;1754548;80;21010;-79
2022/04/27 10:35:33;;;;;;;5.22;4.35;;;;;;;16.42;100.00;101101.01;1721340;81;21044;-78
2022/04/27 10:38:05;;;;;;;3.95;3.65;;;;;;;16.66;100.00;101097.41;1761190;80;21553;-78
2022/04/27 10:40:38;;;;;;;4.70;4.30;;;;;;;17.01;100.00;101085.88;1747871;81;21236;-78
2022/04/27 10:43:17;;;;;;;5.05;4.53;;;;;;;17.32;100.00;101093.46;1740530;82;21412;-79
2022/04/27 10:45:45;;;;;;;5.28;4.78;;;;;;;17.41;100.00;101087.31;1746046;81;21006;-78
2022/04/27 10:48:19;;;;;;;;;;;;;;;17.42;100.00;101089.47;1775070;80;21096;-79
2022/04/27 10:51:07;;;;;;;2.60;2.40;;;;;;;17.26;100.00;101099.32;1765946;80;20150;-79
2022/04/27 10:53:44;;;;;;;4.70;2.80;;;;;;;17.07;100.00;101096.31;1755115;80;21254;-79
2022/04/27 10:56:26;;;;;;;2.90;2.70;;;;;;;16.93;100.00;101094.98;1753940;81;21576;-78
2022/04/27 10:58:54;;;;;;;3.45;2.40;;;;;;;16.87;100.00;101095.04;1766340;81;20981;-78
2022/04/27 11:01:31;;;;;;;2.70;2.50;;;;;;;16.83;100.00;101100.27;1785529;79;22207;-78
2022/04/27 11:04:06;;;;;;;2.98;2.77;;;;;;;16.75;100.00;101097.53;1783582;79;21058;-78
2022/04/27 11:07:14;;;;;;;3.15;2.95;;;;;;;16.63;100.00;101104.77;1782147;79;21194;-78
2022/04/27 11:10:10;;;;;;;3.40;3.10;;;;;;;16.50;100.00;101104.61;1722111;82;21060;-78
2022/04/27 11:12:46;;;;;;;3.47;3.17;;;;;;;16.35;100.00;101105.52;1746138;81;21621;-80
2022/04/27 11:15:24;;;;;;;3.92;3.52;;;;;;;16.26;100.00;101114.25;1769371;79;21018;-78
2022/04/27 11:18:01;;;;;;;5.78;3.72;;;;;;;16.29;100.00;101111.35;1763405;80;21086;-79
2022/04/27 11:20:31;;;;;;;3.62;3.25;;;;;;;16.43;100.00;101115.81;1765917;80;21121;-79
2022/04/27 11:23:03;;;;;;;3.00;2.80;;;;;;;16.54;100.00;101109.91;1781782;80;21674;-81
2022/04/27 11:25:35;;;;;;;3.53;3.23;;;;;;;16.58;100.00;101109.62;1779152;80;21114;-83
2022/04/27 11:28:09;;;;;;;4.75;3.27;;;;;;;16.58;100.00;101106.50;1750801;80;21037;-78
2022/04/27 11:30:36;;;;;;;3.77;3.47;;;;;;;16.62;100.00;101100.00;1742881;81;21042;-81
2022/04/27 11:33:03;;;;;;;4.33;3.92;;;;;;;16.76;100.00;101101.81;1748503;80;21783;-79
2022/04/27 11:35:50;;;;;;;4.47;4.08;;;;;;;16.92;100.00;101107.77;1763632;80;21027;-78
2022/04/27 11:38:20;;;;;;;4.05;3.67;;;;;;;17.00;100.00;101105.27;1751710;81;21504;-79
2022/04/27 11:40:52;;;;;;;3.55;3.25;;;;;;;17.05;100.00;101101.73;1748729;80;21058;-79
2022/04/27 11:43:31;;;;;;;2.47;2.15;;;;;;;17.04;100.00;101105.33;1755079;79;21316;-78
2022/04/27 11:45:59;;;;;;;5.42;2.20;;;;;;;17.01;100.00;101100.34;1753426;81;21847;-79
2022/04/27 11:48:31;;;;;;;3.45;2.33;;;;;;;16.96;100.00;101095.52;1743262;80;21108;-78
2022/04/27 11:51:00;;;;;;;2.05;1.95;;;;;;;16.92;100.00;101091.98;1745494;81;21054;-79
2022/04/27 11:53:28;;;;;;;2.70;2.50;;;;;;;16.97;100.00;101099.81;1746504;81;21548;-79
2022/04/27 11:55:58;;;;;;;2.65;2.45;;;;;;;17.08;100.00;101099.28;1748711;81;21068;-78
2022/04/27 11:58:28;;;;;;;;;;;;;;;17.13;100.00;101091.77;1759331;81;21375;-79
2022/04/27 12:01:02;;;;;;;3.15;1.90;;;;;;;17.12;96.05;101095.38;1741974;81;20609;-79
2022/04/27 12:03:30;;;;;;;2.50;2.30;;;;;;;17.07;90.36;101099.76;1750337;79;21042;-78
2022/04/27 12:05:58;;;;;;;3.22;2.05;;;;;;;16.94;90.56;101090.92;1755584;81;21595;-78